Terminal Aerodrome Forecast
Issued by NWS

Home | Current Version | Previous Version | Text Only | Print | Product List | Glossary On
Versions: 1 2 3 4 5 6 7 8 9 10 11 12 13 14 15 16 17 18 19 20 21 22 23 24 25 26 27 28 29 30 31 32 33 34
000
FTAK31 PANC 011135
TAFADU
TAF
PADU 011135Z 0112/0212 13008G18KT P6SM -SHRA OVC015
      TEMPO 0112/0115 OVC008
     FM011500 11012KT 5SM -SHRA BR OVC007
     FM012200 11012G22KT 3SM -RA BR OVC007
     FM020800 13007KT 3SM -RA BR OVC004=

USA.gov is the U.S. government's official web portal to all federal, state and local government web resources and services.